sensor_id;sensor_type;location;lat;lon;timestamp;pressure;altitude;pressure_sealevel;temperature;humidity
13050;BME280;6591;51.446;5.404;2023-03-11T00:00:45;100425.44;;;7.77;53.84
13050;BME280;6591;51.446;5.404;2023-03-11T00:03:17;100417.75;;;7.71;54.30
13050;BME280;6591;51.446;5.404;2023-03-11T00:05:46;100429.38;;;7.66;54.44
13050;BME280;6591;51.446;5.404;2023-03-11T00:08:17;100434.03;;;7.60;53.65
13050;BME280;6591;51.446;5.404;2023-03-11T00:10:49;100429.84;;;7.54;53.95
13050;BME280;6591;51.446;5.404;2023-03-11T00:13:17;100434.44;;;7.49;53.56
13050;BME280;6591;51.446;5.404;2023-03-11T00:15:48;100433.00;;;7.42;52.87
13050;BME280;6591;51.446;5.404;2023-03-11T00:18:16;100434.09;;;7.37;53.07
13050;BME280;6591;51.446;5.404;2023-03-11T00:20:45;100442.28;;;7.29;52.97
13050;BME280;6591;51.446;5.404;2023-03-11T00:23:14;100446.16;;;7.20;52.85
13050;BME280;6591;51.446;5.404;2023-03-11T00:25:44;100449.06;;;7.13;52.40
13050;BME280;6591;51.446;5.404;2023-03-11T00:28:13;100448.50;;;7.05;52.77
13050;BME280;6591;51.446;5.404;2023-03-11T00:30:43;100447.00;;;6.98;51.93
13050;BME280;6591;51.446;5.404;2023-03-11T00:33:13;100459.56;;;6.91;52.47
13050;BME280;6591;51.446;5.404;2023-03-11T00:35:42;100459.81;;;6.85;52.94
13050;BME280;6591;51.446;5.404;2023-03-11T00:38:13;100454.66;;;6.80;53.06
13050;BME280;6591;51.446;5.404;2023-03-11T00:40:43;100462.75;;;6.76;53.39
13050;BME280;6591;51.446;5.404;2023-03-11T00:43:11;100471.59;;;6.75;53.15
13050;BME280;6591;51.446;5.404;2023-03-11T00:45:38;100466.47;;;6.70;54.12
13050;BME280;6591;51.446;5.404;2023-03-11T00:48:08;100473.59;;;6.68;54.35
13050;BME280;6591;51.446;5.404;2023-03-11T00:50:36;100470.06;;;6.69;53.71
13050;BME280;6591;51.446;5.404;2023-03-11T00:53:05;100470.06;;;6.69;53.95
13050;BME280;6591;51.446;5.404;2023-03-11T00:55:34;100469.19;;;6.69;54.04
13050;BME280;6591;51.446;5.404;2023-03-11T00:58:08;100472.69;;;6.69;53.70
13050;BME280;6591;51.446;5.404;2023-03-11T01:00:43;100477.88;;;6.71;53.97
13050;BME280;6591;51.446;5.404;2023-03-11T01:03:10;100482.28;;;6.70;54.43
13050;BME280;6591;51.446;5.404;2023-03-11T01:05:37;100493.72;;;6.71;54.04
13050;BME280;6591;51.446;5.404;2023-03-11T01:08:04;100501.59;;;6.72;54.86
13050;BME280;6591;51.446;5.404;2023-03-11T01:10:35;100503.31;;;6.73;55.25
13050;BME280;6591;51.446;5.404;2023-03-11T01:13:03;100503.19;;;6.76;54.81
13050;BME280;6591;51.446;5.404;2023-03-11T01:15:35;100513.66;;;6.79;55.66
13050;BME280;6591;51.446;5.404;2023-03-11T01:18:04;100516.13;;;6.84;55.16
13050;BME280;6591;51.446;5.404;2023-03-11T01:20:35;100510.72;;;6.87;55.92
13050;BME280;6591;51.446;5.404;2023-03-11T01:23:05;100514.97;;;6.91;55.71
13050;BME280;6591;51.446;5.404;2023-03-11T01:25:33;100514.84;;;6.96;55.05
13050;BME280;6591;51.446;5.404;2023-03-11T01:28:00;100520.00;;;6.99;55.36
13050;BME280;6591;51.446;5.404;2023-03-11T01:30:31;100516.44;;;7.00;55.09
13050;BME280;6591;51.446;5.404;2023-03-11T01:32:59;100511.03;;;7.03;55.81
13050;BME280;6591;51.446;5.404;2023-03-11T01:35:29;100520.63;;;7.05;55.90
13050;BME280;6591;51.446;5.404;2023-03-11T01:37:57;100510.81;;;7.09;55.46
13050;BME280;6591;51.446;5.404;2023-03-11T01:40:42;100514.44;;;7.06;55.29
13050;BME280;6591;51.446;5.404;2023-03-11T01:43:52;100519.78;;;7.05;55.79
13050;BME280;6591;51.446;5.404;2023-03-11T01:49:21;100513.63;;;7.04;54.88
13050;BME280;6591;51.446;5.404;2023-03-11T01:52:01;100513.75;;;7.01;54.66
13050;BME280;6591;51.446;5.404;2023-03-11T01:54:37;100512.03;;;7.00;54.85
13050;BME280;6591;51.446;5.404;2023-03-11T01:57:11;100513.84;;;6.98;54.37
13050;BME280;6591;51.446;5.404;2023-03-11T01:59:51;100521.94;;;6.94;54.99
13050;BME280;6591;51.446;5.404;2023-03-11T02:02:35;100522.06;;;6.91;53.97
13050;BME280;6591;51.446;5.404;2023-03-11T02:05:04;100513.31;;;6.89;54.13
13050;BME280;6591;51.446;5.404;2023-03-11T02:07:31;100512.50;;;6.87;53.91
13050;BME280;6591;51.446;5.404;2023-03-11T02:09:59;100515.25;;;6.84;54.00
13050;BME280;6591;51.446;5.404;2023-03-11T02:12:33;100512.84;;;6.77;53.59
13050;BME280;6591;51.446;5.404;2023-03-11T02:15:03;100516.47;;;6.75;54.56
13050;BME280;6591;51.446;5.404;2023-03-11T02:17:35;100517.53;;;6.69;53.82
13050;BME280;6591;51.446;5.404;2023-03-11T02:22:43;100528.28;;;6.63;54.57
13050;BME280;6591;51.446;5.404;2023-03-11T02:28:11;100523.22;;;6.57;55.01
13050;BME280;6591;51.446;5.404;2023-03-11T02:30:42;100529.31;;;6.59;54.95
13050;BME280;6591;51.446;5.404;2023-03-11T02:33:12;100524.81;;;6.61;54.62
13050;BME280;6591;51.446;5.404;2023-03-11T02:35:44;100530.00;;;6.64;55.12
13050;BME280;6591;51.446;5.404;2023-03-11T02:38:12;100522.16;;;6.63;55.25
13050;BME280;6591;51.446;5.404;2023-03-11T02:43:33;100521.97;;;6.67;54.74
13050;BME280;6591;51.446;5.404;2023-03-11T02:46:05;100521.06;;;6.68;54.59
13050;BME280;6591;51.446;5.404;2023-03-11T02:48:36;100524.63;;;6.67;54.27
13050;BME280;6591;51.446;5.404;2023-03-11T02:51:04;100528.16;;;6.66;54.44
13050;BME280;6591;51.446;5.404;2023-03-11T02:53:39;100519.56;;;6.61;53.48
13050;BME280;6591;51.446;5.404;2023-03-11T02:56:07;100517.91;;;6.59;53.33
13050;BME280;6591;51.446;5.404;2023-03-11T02:58:35;100519.84;;;6.54;52.63
13050;BME280;6591;51.446;5.404;2023-03-11T03:01:02;100520.97;;;6.45;52.53
13050;BME280;6591;51.446;5.404;2023-03-11T03:03:30;100526.47;;;6.39;52.08
13050;BME280;6591;51.446;5.404;2023-03-11T03:05:58;100524.09;;;6.31;52.89
13050;BME280;6591;51.446;5.404;2023-03-11T03:08:25;100526.94;;;6.25;52.41
13050;BME280;6591;51.446;5.404;2023-03-11T03:10:53;100526.25;;;6.19;52.35
13050;BME280;6591;51.446;5.404;2023-03-11T03:13:20;100536.06;;;6.15;53.02
13050;BME280;6591;51.446;5.404;2023-03-11T03:15:47;100541.47;;;6.11;52.44
13050;BME280;6591;51.446;5.404;2023-03-11T03:18:15;100539.00;;;6.06;53.29
13050;BME280;6591;51.446;5.404;2023-03-11T03:20:42;100551.38;;;6.03;53.31
13050;BME280;6591;51.446;5.404;2023-03-11T03:23:10;100562.03;;;6.00;53.22
13050;BME280;6591;51.446;5.404;2023-03-11T03:25:42;100562.22;;;5.93;52.91
13050;BME280;6591;51.446;5.404;2023-03-11T03:28:11;100558.84;;;5.88;52.81
13050;BME280;6591;51.446;5.404;2023-03-11T03:30:42;100567.75;;;5.84;52.64
13050;BME280;6591;51.446;5.404;2023-03-11T03:33:10;100571.38;;;5.80;53.08
13050;BME280;6591;51.446;5.404;2023-03-11T03:35:42;100575.09;;;5.73;52.65
13050;BME280;6591;51.446;5.404;2023-03-11T03:38:18;100583.03;;;5.72;52.65
13050;BME280;6591;51.446;5.404;2023-03-11T03:40:47;100575.28;;;5.67;52.70
13050;BME280;6591;51.446;5.404;2023-03-11T03:43:17;100576.31;;;5.62;52.78
13050;BME280;6591;51.446;5.404;2023-03-11T03:45:54;100588.72;;;5.58;52.37
13050;BME280;6591;51.446;5.404;2023-03-11T03:48:23;100585.31;;;5.54;53.04
13050;BME280;6591;51.446;5.404;2023-03-11T03:50:51;100588.00;;;5.53;52.90
13050;BME280;6591;51.446;5.404;2023-03-11T03:53:18;100587.22;;;5.49;53.11
13050;BME280;6591;51.446;5.404;2023-03-11T03:55:47;100589.06;;;5.46;52.60
13050;BME280;6591;51.446;5.404;2023-03-11T03:58:16;100597.84;;;5.45;52.95
13050;BME280;6591;51.446;5.404;2023-03-11T04:00:44;100595.31;;;5.42;53.23
13050;BME280;6591;51.446;5.404;2023-03-11T04:03:12;100605.00;;;5.41;53.42
13050;BME280;6591;51.446;5.404;2023-03-11T04:06:23;100604.22;;;5.38;53.97
13050;BME280;6591;51.446;5.404;2023-03-11T04:09:01;100601.50;;;5.41;54.29
13050;BME280;6591;51.446;5.404;2023-03-11T04:11:39;100593.56;;;5.42;54.17
13050;BME280;6591;51.446;5.404;2023-03-11T04:14:07;100603.97;;;5.47;54.28
13050;BME280;6591;51.446;5.404;2023-03-11T04:16:40;100602.09;;;5.50;54.85
13050;BME280;6591;51.446;5.404;2023-03-11T04:19:11;100603.78;;;5.53;54.81
13050;BME280;6591;51.446;5.404;2023-03-11T04:21:38;100594.88;;;5.57;54.23
13050;BME280;6591;51.446;5.404;2023-03-11T04:24:05;100598.28;;;5.61;54.97
13050;BME280;6591;51.446;5.404;2023-03-11T04:26:36;100599.97;;;5.63;54.13
13050;BME280;6591;51.446;5.404;2023-03-11T04:29:07;100603.38;;;5.67;54.92
13050;BME280;6591;51.446;5.404;2023-03-11T04:31:39;100610.34;;;5.69;54.15
13050;BME280;6591;51.446;5.404;2023-03-11T04:34:07;100612.06;;;5.70;53.84
13050;BME280;6591;51.446;5.404;2023-03-11T04:36:36;100609.38;;;5.72;54.20
13050;BME280;6591;51.446;5.404;2023-03-11T04:39:04;100607.59;;;5.72;53.52
13050;BME280;6591;51.446;5.404;2023-03-11T04:41:36;100610.22;;;5.72;53.94
13050;BME280;6591;51.446;5.404;2023-03-11T04:44:05;100609.44;;;5.70;53.20
13050;BME280;6591;51.446;5.404;2023-03-11T04:46:37;100610.41;;;5.66;53.62
13050;BME280;6591;51.446;5.404;2023-03-11T04:49:07;100608.72;;;5.65;53.35
13050;BME280;6591;51.446;5.404;2023-03-11T04:51:35;100619.31;;;5.62;52.76
13050;BME280;6591;51.446;5.404;2023-03-11T04:54:03;100626.38;;;5.60;52.84
13050;BME280;6591;51.446;5.404;2023-03-11T04:56:30;100608.06;;;5.57;52.69
13050;BME280;6591;51.446;5.404;2023-03-11T04:58:58;100610.78;;;5.54;52.72
13050;BME280;6591;51.446;5.404;2023-03-11T05:01:27;100610.91;;;5.49;52.49
13050;BME280;6591;51.446;5.404;2023-03-11T05:03:56;100611.94;;;5.44;51.84
13050;BME280;6591;51.446;5.404;2023-03-11T05:06:23;100622.56;;;5.41;52.37
13050;BME280;6591;51.446;5.404;2023-03-11T05:08:51;100617.44;;;5.35;52.26
13050;BME280;6591;51.446;5.404;2023-03-11T05:11:18;100617.63;;;5.29;51.60
13050;BME280;6591;51.446;5.404;2023-03-11T05:13:46;100630.09;;;5.22;52.03
13050;BME280;6591;51.446;5.404;2023-03-11T05:16:14;100625.91;;;5.15;51.45
13050;BME280;6591;51.446;5.404;2023-03-11T05:18:41;100632.22;;;5.08;52.14
13050;BME280;6591;51.446;5.404;2023-03-11T05:21:10;100631.53;;;5.01;51.49
13050;BME280;6591;51.446;5.404;2023-03-11T05:23:38;100633.41;;;4.96;52.62
13050;BME280;6591;51.446;5.404;2023-03-11T05:26:05;100638.84;;;4.90;51.94
13050;BME280;6591;51.446;5.404;2023-03-11T05:28:35;100641.59;;;4.86;52.23
13050;BME280;6591;51.446;5.404;2023-03-11T05:31:09;100647.00;;;4.80;52.75
13050;BME280;6591;51.446;5.404;2023-03-11T05:33:38;100650.53;;;4.77;52.77
13050;BME280;6591;51.446;5.404;2023-03-11T05:36:09;100650.63;;;4.74;52.71
13050;BME280;6591;51.446;5.404;2023-03-11T05:38:40;100660.31;;;4.72;52.83
13050;BME280;6591;51.446;5.404;2023-03-11T05:41:07;100665.63;;;4.71;53.01
13050;BME280;6591;51.446;5.404;2023-03-11T05:43:35;100666.53;;;4.69;52.88
13050;BME280;6591;51.446;5.404;2023-03-11T05:46:03;100670.09;;;4.67;52.69
13050;BME280;6591;51.446;5.404;2023-03-11T05:48:31;100674.44;;;4.68;52.64
13050;BME280;6591;51.446;5.404;2023-03-11T05:50:59;100669.28;;;4.65;52.52
13050;BME280;6591;51.446;5.404;2023-03-11T05:53:26;100666.66;;;4.63;52.36
13050;BME280;6591;51.446;5.404;2023-03-11T05:55:58;100670.28;;;4.59;52.40
13050;BME280;6591;51.446;5.404;2023-03-11T05:58:28;100671.19;;;4.57;52.45
13050;BME280;6591;51.446;5.404;2023-03-11T06:00:57;100665.13;;;4.55;51.99
13050;BME280;6591;51.446;5.404;2023-03-11T06:03:27;100674.91;;;4.50;51.87
13050;BME280;6591;51.446;5.404;2023-03-11T06:05:55;100667.97;;;4.46;52.10
13050;BME280;6591;51.446;5.404;2023-03-11T06:08:22;100681.22;;;4.41;51.48
13050;BME280;6591;51.446;5.404;2023-03-11T06:10:49;100685.69;;;4.38;51.57
13050;BME280;6591;51.446;5.404;2023-03-11T06:13:18;100683.09;;;4.35;52.29
13050;BME280;6591;51.446;5.404;2023-03-11T06:15:48;100685.81;;;4.32;52.14
13050;BME280;6591;51.446;5.404;2023-03-11T06:18:16;100679.72;;;4.30;52.20
13050;BME280;6591;51.446;5.404;2023-03-11T06:20:44;100688.56;;;4.27;52.29
13050;BME280;6591;51.446;5.404;2023-03-11T06:23:10;100692.97;;;4.25;52.31
13050;BME280;6591;51.446;5.404;2023-03-11T06:25:38;100693.91;;;4.22;52.42
13050;BME280;6591;51.446;5.404;2023-03-11T06:28:05;100698.31;;;4.20;52.55
13050;BME280;6591;51.446;5.404;2023-03-11T06:30:34;100705.41;;;4.17;52.29
13050;BME280;6591;51.446;5.404;2023-03-11T06:33:09;100705.44;;;4.15;52.01
13050;BME280;6591;51.446;5.404;2023-03-11T06:35:36;100705.50;;;4.12;52.75
13050;BME280;6591;51.446;5.404;2023-03-11T06:38:03;100715.97;;;4.14;52.43
13050;BME280;6591;51.446;5.404;2023-03-11T06:40:33;100722.09;;;4.14;52.96
13050;BME280;6591;51.446;5.404;2023-03-11T06:43:00;100724.72;;;4.14;53.51
13050;BME280;6591;51.446;5.404;2023-03-11T06:45:31;100727.28;;;4.17;53.54
13050;BME280;6591;51.446;5.404;2023-03-11T06:47:58;100734.22;;;4.20;53.16
13050;BME280;6591;51.446;5.404;2023-03-11T06:50:26;100736.84;;;4.21;53.08
13050;BME280;6591;51.446;5.404;2023-03-11T06:53:01;100734.19;;;4.23;53.65
13050;BME280;6591;51.446;5.404;2023-03-11T06:55:29;100741.13;;;4.25;53.47
13050;BME280;6591;51.446;5.404;2023-03-11T06:57:59;100744.59;;;4.28;53.52
13050;BME280;6591;51.446;5.404;2023-03-11T07:00:27;100760.34;;;4.29;53.81
13050;BME280;6591;51.446;5.404;2023-03-11T07:02:58;100753.25;;;4.33;54.04
13050;BME280;6591;51.446;5.404;2023-03-11T07:05:26;100764.53;;;4.36;53.64
13050;BME280;6591;51.446;5.404;2023-03-11T07:07:58;100769.69;;;4.41;54.30
13050;BME280;6591;51.446;5.404;2023-03-11T07:10:26;100768.69;;;4.48;54.61
13050;BME280;6591;51.446;5.404;2023-03-11T07:12:52;100770.28;;;4.55;55.11
13050;BME280;6591;51.446;5.404;2023-03-11T07:15:20;100767.44;;;4.64;55.46
13050;BME280;6591;51.446;5.404;2023-03-11T07:17:49;100769.00;;;4.73;54.98
13050;BME280;6591;51.446;5.404;2023-03-11T07:20:17;100774.03;;;4.82;55.29
13050;BME280;6591;51.446;5.404;2023-03-11T07:22:44;100778.19;;;4.92;55.55
13050;BME280;6591;51.446;5.404;2023-03-11T07:25:11;100772.75;;;4.99;55.29
13050;BME280;6591;51.446;5.404;2023-03-11T07:27:38;100779.50;;;5.09;55.05
13050;BME280;6591;51.446;5.404;2023-03-11T07:30:09;100773.25;;;5.15;54.98
13050;BME280;6591;51.446;5.404;2023-03-11T07:32:40;100779.19;;;5.23;55.33
13050;BME280;6591;51.446;5.404;2023-03-11T07:35:08;100786.84;;;5.32;55.83
13050;BME280;6591;51.446;5.404;2023-03-11T07:37:36;100776.94;;;5.43;55.38
13050;BME280;6591;51.446;5.404;2023-03-11T07:40:03;100785.31;;;5.59;56.12
13050;BME280;6591;51.446;5.404;2023-03-11T07:42:32;100777.88;;;5.73;56.52
13050;BME280;6591;51.446;5.404;2023-03-11T07:45:01;100775.66;;;5.92;56.34
13050;BME280;6591;51.446;5.404;2023-03-11T07:47:29;100775.97;;;6.12;56.35
13050;BME280;6591;51.446;5.404;2023-03-11T07:49:57;100781.56;;;6.31;55.85
13050;BME280;6591;51.446;5.404;2023-03-11T07:52:24;100786.22;;;6.52;56.07
13050;BME280;6591;51.446;5.404;2023-03-11T07:54:51;100795.25;;;6.73;56.60
13050;BME280;6591;51.446;5.404;2023-03-11T07:57:18;100792.84;;;6.95;56.05
13050;BME280;6591;51.446;5.404;2023-03-11T07:59:45;100795.66;;;7.16;55.84
13050;BME280;6591;51.446;5.404;2023-03-11T08:02:12;100798.56;;;7.35;55.41
13050;BME280;6591;51.446;5.404;2023-03-11T08:04:39;100793.56;;;7.52;55.16
13050;BME280;6591;51.446;5.404;2023-03-11T08:07:08;100800.06;;;7.69;55.36
13050;BME280;6591;51.446;5.404;2023-03-11T08:09:35;100802.06;;;7.87;54.66
13050;BME280;6591;51.446;5.404;2023-03-11T08:12:03;100793.53;;;8.03;54.71
13050;BME280;6591;51.446;5.404;2023-03-11T08:14:30;100800.75;;;8.23;54.93
13050;BME280;6591;51.446;5.404;2023-03-11T08:16:57;100802.69;;;8.43;54.83
13050;BME280;6591;51.446;5.404;2023-03-11T08:19:25;100807.19;;;8.64;54.45
13050;BME280;6591;51.446;5.404;2023-03-11T08:21:53;100798.41;;;8.85;54.25
13050;BME280;6591;51.446;5.404;2023-03-11T08:24:21;100793.13;;;9.07;54.43
13050;BME280;6591;51.446;5.404;2023-03-11T08:26:48;100803.69;;;9.30;53.88
13050;BME280;6591;51.446;5.404;2023-03-11T08:29:15;100807.13;;;9.53;54.23
13050;BME280;6591;51.446;5.404;2023-03-11T08:31:42;100804.47;;;9.74;54.01
13050;BME280;6591;51.446;5.404;2023-03-11T08:34:10;100803.47;;;9.97;53.98
13050;BME280;6591;51.446;5.404;2023-03-11T08:36:38;100803.34;;;10.20;53.99
13050;BME280;6591;51.446;5.404;2023-03-11T08:39:05;100803.19;;;10.44;53.98
13050;BME280;6591;51.446;5.404;2023-03-11T08:41:34;100801.13;;;10.69;54.15
13050;BME280;6591;51.446;5.404;2023-03-11T08:44:01;100808.03;;;10.92;54.61
13050;BME280;6591;51.446;5.404;2023-03-11T08:46:33;100806.19;;;11.11;54.43
13050;BME280;6591;51.446;5.404;2023-03-11T08:49:04;100817.44;;;11.35;54.41
13050;BME280;6591;51.446;5.404;2023-03-11T08:51:34;100821.09;;;11.51;53.99
13050;BME280;6591;51.446;5.404;2023-03-11T08:54:02;100824.91;;;11.63;54.04
13050;BME280;6591;51.446;5.404;2023-03-11T08:56:31;100824.53;;;11.70;54.14
13050;BME280;6591;51.446;5.404;2023-03-11T08:58:58;100827.56;;;11.81;54.23
13050;BME280;6591;51.446;5.404;2023-03-11T09:01:25;100830.53;;;11.93;54.50
13050;BME280;6591;51.446;5.404;2023-03-11T09:03:56;100828.00;;;12.07;54.44
13050;BME280;6591;51.446;5.404;2023-03-11T09:06:23;100834.41;;;12.20;54.40
13050;BME280;6591;51.446;5.404;2023-03-11T09:08:51;100820.47;;;12.32;53.49
13050;BME280;6591;51.446;5.404;2023-03-11T09:11:18;100819.63;;;12.47;53.94
13050;BME280;6591;51.446;5.404;2023-03-11T09:13:48;100829.56;;;12.61;53.99
13050;BME280;6591;51.446;5.404;2023-03-11T09:16:21;100830.59;;;12.74;53.87
13050;BME280;6591;51.446;5.404;2023-03-11T09:18:49;100829.84;;;12.88;53.50
13050;BME280;6591;51.446;5.404;2023-03-11T09:21:16;100829.84;;;13.03;53.11
13050;BME280;6591;51.446;5.404;2023-03-11T09:23:43;100833.78;;;13.13;52.91
13050;BME280;6591;51.446;5.404;2023-03-11T09:26:13;100834.19;;;13.22;52.51
13050;BME280;6591;51.446;5.404;2023-03-11T09:28:42;100835.47;;;13.30;52.62
13050;BME280;6591;51.446;5.404;2023-03-11T09:31:09;100848.31;;;13.39;52.33
13050;BME280;6591;51.446;5.404;2023-03-11T09:33:39;100851.47;;;13.46;52.85
13050;BME280;6591;51.446;5.404;2023-03-11T09:36:13;100851.19;;;13.50;52.75
13050;BME280;6591;51.446;5.404;2023-03-11T09:38:42;100846.09;;;13.62;53.35
13050;BME280;6591;51.446;5.404;2023-03-11T09:41:26;100847.13;;;13.75;52.88
13050;BME280;6591;51.446;5.404;2023-03-11T09:44:36;100841.09;;;13.87;53.04
13050;BME280;6591;51.446;5.404;2023-03-11T09:53:44;100841.06;;;14.31;53.91
13050;BME280;6591;51.446;5.404;2023-03-11T09:56:17;100843.31;;;14.53;54.45
13050;BME280;6591;51.446;5.404;2023-03-11T09:58:54;100846.00;;;14.67;53.86
13050;BME280;6591;51.446;5.404;2023-03-11T10:01:37;100855.84;;;14.80;53.32
13050;BME280;6591;51.446;5.404;2023-03-11T10:04:11;100845.59;;;14.87;53.28
13050;BME280;6591;51.446;5.404;2023-03-11T10:06:43;100842.44;;;14.95;53.33
13050;BME280;6591;51.446;5.404;2023-03-11T10:26:26;100855.63;;;14.55;50.61
13050;BME280;6591;51.446;5.404;2023-03-11T10:29:28;100870.69;;;14.42;51.24
13050;BME280;6591;51.446;5.404;2023-03-11T10:32:18;100864.81;;;14.35;50.97
13050;BME280;6591;51.446;5.404;2023-03-11T10:35:20;100871.94;;;14.36;51.84
13050;BME280;6591;51.446;5.404;2023-03-11T10:38:13;100876.47;;;14.34;51.77
13050;BME280;6591;51.446;5.404;2023-03-11T10:40:46;100870.69;;;14.42;51.96
13050;BME280;6591;51.446;5.404;2023-03-11T10:43:20;100876.34;;;14.52;51.85
13050;BME280;6591;51.446;5.404;2023-03-11T10:45:52;100874.72;;;14.63;52.46
13050;BME280;6591;51.446;5.404;2023-03-11T10:48:21;100868.91;;;14.71;52.22
13050;BME280;6591;51.446;5.404;2023-03-11T10:51:03;100871.19;;;14.77;51.70
13050;BME280;6591;51.446;5.404;2023-03-11T10:53:52;100872.75;;;14.81;51.16
13050;BME280;6591;51.446;5.404;2023-03-11T10:56:39;100868.22;;;14.81;50.96
13050;BME280;6591;51.446;5.404;2023-03-11T10:59:24;100865.69;;;14.80;50.82
13050;BME280;6591;51.446;5.404;2023-03-11T11:02:23;100874.56;;;14.80;51.04
13050;BME280;6591;51.446;5.404;2023-03-11T11:07:51;100871.09;;;14.93;50.64
13050;BME280;6591;51.446;5.404;2023-03-11T11:10:30;100880.25;;;15.03;50.63
13050;BME280;6591;51.446;5.404;2023-03-11T11:13:00;100873.78;;;15.07;50.19
13050;BME280;6591;51.446;5.404;2023-03-11T11:16:00;100872.31;;;15.15;49.99
13050;BME280;6591;51.446;5.404;2023-03-11T11:18:43;100867.31;;;15.38;50.39
13050;BME280;6591;51.446;5.404;2023-03-11T11:27:02;100867.19;;;16.20;50.50
13050;BME280;6591;51.446;5.404;2023-03-11T11:29:31;100867.75;;;16.50;50.64
13050;BME280;6591;51.446;5.404;2023-03-11T11:32:19;100867.22;;;16.70;49.65
13050;BME280;6591;51.446;5.404;2023-03-11T11:35:03;100862.16;;;16.91;49.58
13050;BME280;6591;51.446;5.404;2023-03-11T11:37:39;100863.38;;;17.00;48.62
13050;BME280;6591;51.446;5.404;2023-03-11T11:42:53;100859.47;;;17.04;47.73
13050;BME280;6591;51.446;5.404;2023-03-11T11:45:37;100864.84;;;17.04;47.29
13050;BME280;6591;51.446;5.404;2023-03-11T11:48:46;100864.84;;;16.91;47.06
13050;BME280;6591;51.446;5.404;2023-03-11T11:51:34;100861.66;;;16.86;46.97
13050;BME280;6591;51.446;5.404;2023-03-11T11:57:41;100863.78;;;16.81;47.01
13050;BME280;6591;51.446;5.404;2023-03-11T12:07:00;100861.00;;;16.95;46.34
13050;BME280;6591;51.446;5.404;2023-03-11T12:09:47;100860.25;;;17.06;46.89
13050;BME280;6591;51.446;5.404;2023-03-11T12:12:44;100858.38;;;17.19;46.82
13050;BME280;6591;51.446;5.404;2023-03-11T12:15:34;100857.91;;;17.38;47.06
13050;BME280;6591;51.446;5.404;2023-03-11T12:18:20;100859.75;;;17.61;47.17
13050;BME280;6591;51.446;5.404;2023-03-11T12:20:54;100863.19;;;17.87;46.68
13050;BME280;6591;51.446;5.404;2023-03-11T12:23:41;100851.78;;;18.07;46.45
13050;BME280;6591;51.446;5.404;2023-03-11T12:26:25;100850.13;;;18.28;46.20
13050;BME280;6591;51.446;5.404;2023-03-11T12:29:00;100849.31;;;18.50;46.43
13050;BME280;6591;51.446;5.404;2023-03-11T12:31:36;100848.75;;;18.69;46.04
13050;BME280;6591;51.446;5.404;2023-03-11T12:34:13;100846.06;;;18.80;45.35
13050;BME280;6591;51.446;5.404;2023-03-11T12:36:47;100847.69;;;18.82;45.05
13050;BME280;6591;51.446;5.404;2023-03-11T12:39:23;100850.72;;;18.78;44.54
13050;BME280;6591;51.446;5.404;2023-03-11T12:42:22;100845.84;;;18.72;45.01
13050;BME280;6591;51.446;5.404;2023-03-11T12:44:53;100853.44;;;18.78;45.29
13050;BME280;6591;51.446;5.404;2023-03-11T12:47:40;100849.75;;;18.79;44.96
13050;BME280;6591;51.446;5.404;2023-03-11T12:50:38;100843.63;;;18.66;44.32
13050;BME280;6591;51.446;5.404;2023-03-11T12:53:16;100852.53;;;18.55;43.92
13050;BME280;6591;51.446;5.404;2023-03-11T12:56:35;100850.25;;;18.38;43.69
13050;BME280;6591;51.446;5.404;2023-03-11T13:01:56;100846.47;;;18.29;44.39
13050;BME280;6591;51.446;5.404;2023-03-11T13:05:00;100822.78;;;18.34;45.03
13050;BME280;6591;51.446;5.404;2023-03-11T13:07:45;100822.53;;;18.48;45.17
13050;BME280;6591;51.446;5.404;2023-03-11T13:10:40;100824.06;;;18.63;44.79
13050;BME280;6591;51.446;5.404;2023-03-11T13:13:37;100825.88;;;18.74;44.69
13050;BME280;6591;51.446;5.404;2023-03-11T13:18:43;100825.03;;;18.96;43.98
13050;BME280;6591;51.446;5.404;2023-03-11T13:33:15;100835.28;;;18.11;42.97
13050;BME280;6591;51.446;5.404;2023-03-11T13:39:50;100824.91;;;17.72;42.85
13050;BME280;6591;51.446;5.404;2023-03-11T13:42:36;100825.94;;;17.58;42.34
13050;BME280;6591;51.446;5.404;2023-03-11T13:47:50;100826.06;;;17.44;43.06
13050;BME280;6591;51.446;5.404;2023-03-11T13:50:29;100836.63;;;17.34;42.37
13050;BME280;6591;51.446;5.404;2023-03-11T13:53:08;100830.84;;;17.28;42.88
13050;BME280;6591;51.446;5.404;2023-03-11T13:55:43;100828.16;;;17.28;42.95
13050;BME280;6591;51.446;5.404;2023-03-11T13:58:25;100832.81;;;17.26;42.45
13050;BME280;6591;51.446;5.404;2023-03-11T14:00:59;100833.03;;;17.23;42.08
13050;BME280;6591;51.446;5.404;2023-03-11T14:03:41;100828.75;;;17.20;41.85
13050;BME280;6591;51.446;5.404;2023-03-11T14:06:18;100831.44;;;17.20;42.08
13050;BME280;6591;51.446;5.404;2023-03-11T14:08:56;100828.50;;;17.23;42.14
13050;BME280;6591;51.446;5.404;2023-03-11T14:11:27;100831.84;;;17.27;42.29
13050;BME280;6591;51.446;5.404;2023-03-11T14:13:57;100839.66;;;17.30;42.35
13050;BME280;6591;51.446;5.404;2023-03-11T14:16:36;100840.53;;;17.30;42.47
13050;BME280;6591;51.446;5.404;2023-03-11T14:19:17;100840.94;;;17.37;42.26
13050;BME280;6591;51.446;5.404;2023-03-11T14:21:48;100838.63;;;17.44;42.25
13050;BME280;6591;51.446;5.404;2023-03-11T14:24:23;100840.25;;;17.46;41.89
13050;BME280;6591;51.446;5.404;2023-03-11T14:26:53;100847.19;;;17.49;42.18
13050;BME280;6591;51.446;5.404;2023-03-11T14:29:39;100847.09;;;17.50;41.90
13050;BME280;6591;51.446;5.404;2023-03-11T14:32:33;100848.16;;;17.60;42.29
13050;BME280;6591;51.446;5.404;2023-03-11T14:35:17;100848.84;;;17.75;42.64
13050;BME280;6591;51.446;5.404;2023-03-11T14:37:45;100844.53;;;17.96;43.37
13050;BME280;6591;51.446;5.404;2023-03-11T14:43:03;100848.69;;;18.35;43.32
13050;BME280;6591;51.446;5.404;2023-03-11T14:45:34;100840.06;;;18.54;42.94
13050;BME280;6591;51.446;5.404;2023-03-11T14:48:13;100844.22;;;18.69;43.13
13050;BME280;6591;51.446;5.404;2023-03-11T14:50:44;100851.81;;;18.86;43.18
13050;BME280;6591;51.446;5.404;2023-03-11T14:53:36;100857.09;;;18.99;42.36
13050;BME280;6591;51.446;5.404;2023-03-11T14:56:25;100852.69;;;19.09;42.02
13050;BME280;6591;51.446;5.404;2023-03-11T14:59:27;100851.47;;;19.02;41.31
13050;BME280;6591;51.446;5.404;2023-03-11T15:05:26;100848.66;;;19.03;41.95